sensor_id;sensor_type;location;lat;lon;timestamp;P1;durP1;ratioP1;P2;durP2;ratioP2
85955;SDS011;76522;51.420;5.386;2024-03-22T00:00:12;52.85;;;26.38;;
85955;SDS011;76522;51.420;5.386;2024-03-22T00:02:38;44.08;;;24.77;;
85955;SDS011;76522;51.420;5.386;2024-03-22T00:05:04;46.50;;;23.85;;
85955;SDS011;76522;51.420;5.386;2024-03-22T00:07:30;43.90;;;22.38;;
85955;SDS011;76522;51.420;5.386;2024-03-22T00:09:56;43.35;;;21.27;;
85955;SDS011;76522;51.420;5.386;2024-03-22T00:12:22;47.20;;;25.52;;
85955;SDS011;76522;51.420;5.386;2024-03-22T00:14:48;51.45;;;24.52;;
85955;SDS011;76522;51.420;5.386;2024-03-22T00:17:16;46.78;;;25.02;;
85955;SDS011;76522;51.420;5.386;2024-03-22T00:19:42;47.00;;;24.55;;
85955;SDS011;76522;51.420;5.386;2024-03-22T00:22:07;45.15;;;24.23;;
85955;SDS011;76522;51.420;5.386;2024-03-22T00:24:34;45.40;;;22.35;;
85955;SDS011;76522;51.420;5.386;2024-03-22T00:26:59;44.72;;;25.52;;
85955;SDS011;76522;51.420;5.386;2024-03-22T00:29:25;49.75;;;27.33;;
85955;SDS011;76522;51.420;5.386;2024-03-22T00:31:51;44.22;;;22.85;;
85955;SDS011;76522;51.420;5.386;2024-03-22T00:34:17;44.33;;;24.23;;
85955;SDS011;76522;51.420;5.386;2024-03-22T00:36:42;50.70;;;25.20;;
85955;SDS011;76522;51.420;5.386;2024-03-22T00:39:08;48.05;;;25.20;;
85955;SDS011;76522;51.420;5.386;2024-03-22T00:41:34;50.72;;;26.13;;
85955;SDS011;76522;51.420;5.386;2024-03-22T00:43:59;50.13;;;24.73;;
85955;SDS011;76522;51.420;5.386;2024-03-22T00:46:25;44.22;;;22.42;;
85955;SDS011;76522;51.420;5.386;2024-03-22T00:48:51;45.25;;;25.23;;
85955;SDS011;76522;51.420;5.386;2024-03-22T00:51:17;46.83;;;24.35;;
85955;SDS011;76522;51.420;5.386;2024-03-22T00:53:42;44.72;;;23.45;;
85955;SDS011;76522;51.420;5.386;2024-03-22T00:56:08;42.70;;;24.45;;
85955;SDS011;76522;51.420;5.386;2024-03-22T00:58:34;41.75;;;23.75;;
85955;SDS011;76522;51.420;5.386;2024-03-22T01:00:59;42.20;;;22.25;;
85955;SDS011;76522;51.420;5.386;2024-03-22T01:03:25;40.90;;;23.75;;
85955;SDS011;76522;51.420;5.386;2024-03-22T01:05:51;46.88;;;24.23;;
85955;SDS011;76522;51.420;5.386;2024-03-22T01:08:17;45.72;;;28.80;;
85955;SDS011;76522;51.420;5.386;2024-03-22T01:10:42;44.67;;;24.40;;
85955;SDS011;76522;51.420;5.386;2024-03-22T01:13:08;45.15;;;24.85;;
85955;SDS011;76522;51.420;5.386;2024-03-22T01:15:34;42.75;;;22.35;;
85955;SDS011;76522;51.420;5.386;2024-03-22T01:17:59;40.20;;;22.75;;
85955;SDS011;76522;51.420;5.386;2024-03-22T01:20:25;39.63;;;22.45;;
85955;SDS011;76522;51.420;5.386;2024-03-22T01:22:51;47.22;;;24.00;;
85955;SDS011;76522;51.420;5.386;2024-03-22T01:25:16;44.50;;;24.70;;
85955;SDS011;76522;51.420;5.386;2024-03-22T01:27:42;40.75;;;22.15;;
85955;SDS011;76522;51.420;5.386;2024-03-22T01:30:08;35.55;;;20.55;;
85955;SDS011;76522;51.420;5.386;2024-03-22T01:32:37;35.20;;;20.75;;
85955;SDS011;76522;51.420;5.386;2024-03-22T01:35:03;35.55;;;22.02;;
85955;SDS011;76522;51.420;5.386;2024-03-22T01:37:29;36.95;;;22.25;;
85955;SDS011;76522;51.420;5.386;2024-03-22T01:39:54;41.13;;;22.95;;
85955;SDS011;76522;51.420;5.386;2024-03-22T01:42:20;40.92;;;23.58;;
85955;SDS011;76522;51.420;5.386;2024-03-22T01:44:46;35.60;;;22.77;;
85955;SDS011;76522;51.420;5.386;2024-03-22T01:47:13;39.30;;;21.13;;
85955;SDS011;76522;51.420;5.386;2024-03-22T01:49:39;41.67;;;26.35;;
85955;SDS011;76522;51.420;5.386;2024-03-22T01:52:05;40.17;;;27.02;;
85955;SDS011;76522;51.420;5.386;2024-03-22T01:54:30;32.83;;;19.17;;
85955;SDS011;76522;51.420;5.386;2024-03-22T01:56:56;34.88;;;20.77;;
85955;SDS011;76522;51.420;5.386;2024-03-22T01:59:22;35.70;;;20.33;;
85955;SDS011;76522;51.420;5.386;2024-03-22T02:01:48;35.10;;;21.17;;
85955;SDS011;76522;51.420;5.386;2024-03-22T02:04:14;34.78;;;20.45;;
85955;SDS011;76522;51.420;5.386;2024-03-22T02:06:40;35.67;;;18.73;;
85955;SDS011;76522;51.420;5.386;2024-03-22T02:09:06;30.75;;;19.35;;
85955;SDS011;76522;51.420;5.386;2024-03-22T02:11:34;34.03;;;21.70;;
85955;SDS011;76522;51.420;5.386;2024-03-22T02:14:03;35.55;;;20.60;;
85955;SDS011;76522;51.420;5.386;2024-03-22T02:16:29;34.08;;;21.17;;
85955;SDS011;76522;51.420;5.386;2024-03-22T02:18:55;35.50;;;20.73;;
85955;SDS011;76522;51.420;5.386;2024-03-22T02:21:20;31.67;;;19.65;;
85955;SDS011;76522;51.420;5.386;2024-03-22T02:23:46;32.20;;;19.20;;
85955;SDS011;76522;51.420;5.386;2024-03-22T02:26:12;35.65;;;19.05;;
85955;SDS011;76522;51.420;5.386;2024-03-22T02:28:37;32.25;;;19.15;;
85955;SDS011;76522;51.420;5.386;2024-03-22T02:31:03;34.20;;;21.38;;
85955;SDS011;76522;51.420;5.386;2024-03-22T02:33:29;30.05;;;20.42;;
85955;SDS011;76522;51.420;5.386;2024-03-22T02:35:55;33.10;;;20.90;;
85955;SDS011;76522;51.420;5.386;2024-03-22T02:38:21;33.70;;;20.00;;
85955;SDS011;76522;51.420;5.386;2024-03-22T02:40:48;33.65;;;17.75;;
85955;SDS011;76522;51.420;5.386;2024-03-22T02:43:14;33.35;;;19.88;;
85955;SDS011;76522;51.420;5.386;2024-03-22T02:45:42;37.35;;;22.08;;
85955;SDS011;76522;51.420;5.386;2024-03-22T02:48:08;34.60;;;21.13;;
85955;SDS011;76522;51.420;5.386;2024-03-22T02:50:35;34.53;;;21.27;;
85955;SDS011;76522;51.420;5.386;2024-03-22T02:53:01;34.83;;;19.67;;
85955;SDS011;76522;51.420;5.386;2024-03-22T02:55:27;27.17;;;14.90;;
85955;SDS011;76522;51.420;5.386;2024-03-22T02:57:53;33.70;;;19.17;;
85955;SDS011;76522;51.420;5.386;2024-03-22T03:00:19;32.50;;;18.85;;
85955;SDS011;76522;51.420;5.386;2024-03-22T03:02:45;27.02;;;18.08;;
85955;SDS011;76522;51.420;5.386;2024-03-22T03:05:11;33.15;;;18.45;;
85955;SDS011;76522;51.420;5.386;2024-03-22T03:07:37;31.98;;;17.23;;
85955;SDS011;76522;51.420;5.386;2024-03-22T03:10:02;31.98;;;21.02;;
85955;SDS011;76522;51.420;5.386;2024-03-22T03:12:28;29.80;;;18.35;;
85955;SDS011;76522;51.420;5.386;2024-03-22T03:14:54;30.80;;;19.10;;
85955;SDS011;76522;51.420;5.386;2024-03-22T03:17:19;32.70;;;19.65;;
85955;SDS011;76522;51.420;5.386;2024-03-22T03:19:45;31.38;;;18.98;;
85955;SDS011;76522;51.420;5.386;2024-03-22T03:22:11;36.05;;;18.95;;
85955;SDS011;76522;51.420;5.386;2024-03-22T03:24:36;28.20;;;17.73;;
85955;SDS011;76522;51.420;5.386;2024-03-22T03:27:02;32.88;;;19.15;;
85955;SDS011;76522;51.420;5.386;2024-03-22T03:29:28;34.42;;;22.85;;
85955;SDS011;76522;51.420;5.386;2024-03-22T03:31:54;30.48;;;17.00;;
85955;SDS011;76522;51.420;5.386;2024-03-22T03:34:19;28.58;;;17.30;;
85955;SDS011;76522;51.420;5.386;2024-03-22T03:36:45;29.35;;;17.75;;
85955;SDS011;76522;51.420;5.386;2024-03-22T03:39:11;29.55;;;18.77;;
85955;SDS011;76522;51.420;5.386;2024-03-22T03:41:37;31.67;;;20.52;;
85955;SDS011;76522;51.420;5.386;2024-03-22T03:44:03;28.77;;;17.45;;
85955;SDS011;76522;51.420;5.386;2024-03-22T03:46:28;33.35;;;20.52;;
85955;SDS011;76522;51.420;5.386;2024-03-22T03:48:54;34.35;;;20.25;;
85955;SDS011;76522;51.420;5.386;2024-03-22T03:51:20;36.25;;;22.52;;
85955;SDS011;76522;51.420;5.386;2024-03-22T03:53:46;34.05;;;21.33;;
85955;SDS011;76522;51.420;5.386;2024-03-22T03:56:12;29.40;;;18.15;;
85955;SDS011;76522;51.420;5.386;2024-03-22T03:58:38;29.52;;;19.25;;
85955;SDS011;76522;51.420;5.386;2024-03-22T04:01:07;29.60;;;18.60;;
85955;SDS011;76522;51.420;5.386;2024-03-22T04:03:33;27.15;;;17.50;;
85955;SDS011;76522;51.420;5.386;2024-03-22T04:05:59;30.00;;;15.85;;
85955;SDS011;76522;51.420;5.386;2024-03-22T04:08:25;26.85;;;16.48;;
85955;SDS011;76522;51.420;5.386;2024-03-22T04:10:52;31.73;;;16.77;;
85955;SDS011;76522;51.420;5.386;2024-03-22T04:13:21;20.63;;;11.73;;
85955;SDS011;76522;51.420;5.386;2024-03-22T04:15:46;34.72;;;20.17;;
85955;SDS011;76522;51.420;5.386;2024-03-22T04:18:12;25.45;;;17.67;;
85955;SDS011;76522;51.420;5.386;2024-03-22T04:20:38;28.70;;;19.35;;
85955;SDS011;76522;51.420;5.386;2024-03-22T04:23:03;28.58;;;18.05;;
85955;SDS011;76522;51.420;5.386;2024-03-22T04:25:29;26.08;;;17.60;;
85955;SDS011;76522;51.420;5.386;2024-03-22T04:27:55;28.95;;;17.23;;
85955;SDS011;76522;51.420;5.386;2024-03-22T04:30:20;33.13;;;19.75;;
85955;SDS011;76522;51.420;5.386;2024-03-22T04:32:46;29.60;;;16.48;;
85955;SDS011;76522;51.420;5.386;2024-03-22T04:35:12;29.42;;;16.80;;
85955;SDS011;76522;51.420;5.386;2024-03-22T04:37:37;31.38;;;20.70;;
85955;SDS011;76522;51.420;5.386;2024-03-22T04:40:03;23.40;;;16.33;;
85955;SDS011;76522;51.420;5.386;2024-03-22T04:42:29;30.67;;;20.55;;
85955;SDS011;76522;51.420;5.386;2024-03-22T04:44:55;31.67;;;19.20;;
85955;SDS011;76522;51.420;5.386;2024-03-22T04:47:22;31.20;;;20.50;;
85955;SDS011;76522;51.420;5.386;2024-03-22T04:49:48;28.00;;;17.85;;
85955;SDS011;76522;51.420;5.386;2024-03-22T04:52:14;32.97;;;20.30;;
85955;SDS011;76522;51.420;5.386;2024-03-22T04:54:39;34.88;;;19.70;;
85955;SDS011;76522;51.420;5.386;2024-03-22T04:57:05;27.70;;;16.00;;
85955;SDS011;76522;51.420;5.386;2024-03-22T04:59:30;29.50;;;16.90;;
85955;SDS011;76522;51.420;5.386;2024-03-22T05:01:56;31.17;;;18.77;;
85955;SDS011;76522;51.420;5.386;2024-03-22T05:04:22;30.73;;;18.80;;
85955;SDS011;76522;51.420;5.386;2024-03-22T05:06:48;28.27;;;19.73;;
85955;SDS011;76522;51.420;5.386;2024-03-22T05:09:14;24.48;;;15.48;;
85955;SDS011;76522;51.420;5.386;2024-03-22T05:11:39;25.42;;;16.15;;
85955;SDS011;76522;51.420;5.386;2024-03-22T05:14:05;26.85;;;17.83;;
85955;SDS011;76522;51.420;5.386;2024-03-22T05:16:31;25.42;;;16.60;;
85955;SDS011;76522;51.420;5.386;2024-03-22T05:18:56;28.83;;;18.75;;
85955;SDS011;76522;51.420;5.386;2024-03-22T05:21:22;25.90;;;18.95;;
85955;SDS011;76522;51.420;5.386;2024-03-22T05:23:48;25.42;;;16.70;;
85955;SDS011;76522;51.420;5.386;2024-03-22T05:26:13;28.33;;;16.67;;
85955;SDS011;76522;51.420;5.386;2024-03-22T05:28:39;28.58;;;19.95;;
85955;SDS011;76522;51.420;5.386;2024-03-22T05:31:05;28.05;;;18.55;;
85955;SDS011;76522;51.420;5.386;2024-03-22T05:33:30;27.15;;;18.40;;
85955;SDS011;76522;51.420;5.386;2024-03-22T05:35:57;27.80;;;17.73;;
85955;SDS011;76522;51.420;5.386;2024-03-22T05:38:22;29.95;;;18.48;;
85955;SDS011;76522;51.420;5.386;2024-03-22T05:40:48;29.30;;;16.33;;
85955;SDS011;76522;51.420;5.386;2024-03-22T05:43:14;27.10;;;17.52;;
85955;SDS011;76522;51.420;5.386;2024-03-22T05:45:39;28.45;;;16.13;;
85955;SDS011;76522;51.420;5.386;2024-03-22T05:48:05;26.85;;;17.85;;
85955;SDS011;76522;51.420;5.386;2024-03-22T05:50:31;31.10;;;18.55;;
85955;SDS011;76522;51.420;5.386;2024-03-22T05:52:57;29.35;;;19.17;;
85955;SDS011;76522;51.420;5.386;2024-03-22T05:55:22;27.08;;;17.50;;
85955;SDS011;76522;51.420;5.386;2024-03-22T05:57:48;30.80;;;19.85;;
85955;SDS011;76522;51.420;5.386;2024-03-22T06:00:14;25.83;;;16.05;;
85955;SDS011;76522;51.420;5.386;2024-03-22T06:02:40;28.70;;;15.70;;
85955;SDS011;76522;51.420;5.386;2024-03-22T06:05:06;27.42;;;16.17;;
85955;SDS011;76522;51.420;5.386;2024-03-22T06:07:32;25.10;;;16.27;;
85955;SDS011;76522;51.420;5.386;2024-03-22T06:10:05;29.25;;;15.05;;
85955;SDS011;76522;51.420;5.386;2024-03-22T06:12:31;30.90;;;17.42;;
85955;SDS011;76522;51.420;5.386;2024-03-22T06:14:57;24.92;;;16.13;;
85955;SDS011;76522;51.420;5.386;2024-03-22T06:17:22;26.33;;;15.52;;
85955;SDS011;76522;51.420;5.386;2024-03-22T06:19:48;24.40;;;15.57;;
85955;SDS011;76522;51.420;5.386;2024-03-22T06:22:14;22.20;;;14.70;;
85955;SDS011;76522;51.420;5.386;2024-03-22T06:24:40;24.45;;;15.52;;
85955;SDS011;76522;51.420;5.386;2024-03-22T06:27:05;27.15;;;16.75;;
85955;SDS011;76522;51.420;5.386;2024-03-22T06:29:32;24.38;;;14.93;;
85955;SDS011;76522;51.420;5.386;2024-03-22T06:31:58;27.05;;;17.75;;
85955;SDS011;76522;51.420;5.386;2024-03-22T06:34:23;24.20;;;14.15;;
85955;SDS011;76522;51.420;5.386;2024-03-22T06:36:49;28.98;;;17.65;;
85955;SDS011;76522;51.420;5.386;2024-03-22T06:39:15;25.27;;;13.93;;
85955;SDS011;76522;51.420;5.386;2024-03-22T06:41:41;20.58;;;12.52;;
85955;SDS011;76522;51.420;5.386;2024-03-22T06:44:07;23.77;;;14.05;;
85955;SDS011;76522;51.420;5.386;2024-03-22T06:46:37;19.20;;;11.98;;
85955;SDS011;76522;51.420;5.386;2024-03-22T06:49:02;21.95;;;14.35;;
85955;SDS011;76522;51.420;5.386;2024-03-22T06:51:28;21.20;;;13.57;;
85955;SDS011;76522;51.420;5.386;2024-03-22T06:53:54;25.90;;;13.18;;
85955;SDS011;76522;51.420;5.386;2024-03-22T06:56:20;19.42;;;11.23;;
85955;SDS011;76522;51.420;5.386;2024-03-22T06:58:46;21.60;;;13.07;;
85955;SDS011;76522;51.420;5.386;2024-03-22T07:01:11;19.50;;;12.77;;
85955;SDS011;76522;51.420;5.386;2024-03-22T07:03:37;18.20;;;10.00;;
85955;SDS011;76522;51.420;5.386;2024-03-22T07:06:03;18.25;;;10.95;;
85955;SDS011;76522;51.420;5.386;2024-03-22T07:08:31;23.23;;;12.93;;
85955;SDS011;76522;51.420;5.386;2024-03-22T07:10:56;22.75;;;13.88;;
85955;SDS011;76522;51.420;5.386;2024-03-22T07:13:22;22.98;;;13.95;;
85955;SDS011;76522;51.420;5.386;2024-03-22T07:15:48;19.60;;;12.80;;
85955;SDS011;76522;51.420;5.386;2024-03-22T07:18:14;16.80;;;10.88;;
85955;SDS011;76522;51.420;5.386;2024-03-22T07:20:41;21.13;;;13.07;;
85955;SDS011;76522;51.420;5.386;2024-03-22T07:23:07;19.33;;;10.63;;
85955;SDS011;76522;51.420;5.386;2024-03-22T07:25:33;19.60;;;11.98;;
85955;SDS011;76522;51.420;5.386;2024-03-22T07:27:59;12.77;;;8.80;;
85955;SDS011;76522;51.420;5.386;2024-03-22T07:30:24;15.20;;;8.65;;
85955;SDS011;76522;51.420;5.386;2024-03-22T07:32:50;16.98;;;11.00;;
85955;SDS011;76522;51.420;5.386;2024-03-22T07:35:16;16.45;;;10.70;;
85955;SDS011;76522;51.420;5.386;2024-03-22T07:37:42;17.05;;;11.90;;
85955;SDS011;76522;51.420;5.386;2024-03-22T07:40:07;15.27;;;10.68;;
85955;SDS011;76522;51.420;5.386;2024-03-22T07:42:33;14.93;;;10.13;;
85955;SDS011;76522;51.420;5.386;2024-03-22T07:44:59;14.20;;;9.25;;
85955;SDS011;76522;51.420;5.386;2024-03-22T07:47:25;15.65;;;9.25;;
85955;SDS011;76522;51.420;5.386;2024-03-22T07:49:51;10.93;;;7.10;;
85955;SDS011;76522;51.420;5.386;2024-03-22T07:52:16;14.32;;;9.15;;
85955;SDS011;76522;51.420;5.386;2024-03-22T07:54:42;14.02;;;9.80;;
85955;SDS011;76522;51.420;5.386;2024-03-22T07:57:08;8.48;;;5.50;;
85955;SDS011;76522;51.420;5.386;2024-03-22T07:59:35;13.75;;;8.90;;
85955;SDS011;76522;51.420;5.386;2024-03-22T08:02:01;16.25;;;11.10;;
85955;SDS011;76522;51.420;5.386;2024-03-22T08:04:28;15.35;;;10.48;;
85955;SDS011;76522;51.420;5.386;2024-03-22T08:06:54;16.17;;;10.15;;
85955;SDS011;76522;51.420;5.386;2024-03-22T08:09:20;14.80;;;10.85;;
85955;SDS011;76522;51.420;5.386;2024-03-22T08:11:46;8.15;;;5.78;;
85955;SDS011;76522;51.420;5.386;2024-03-22T08:14:12;14.43;;;11.32;;
85955;SDS011;76522;51.420;5.386;2024-03-22T08:16:37;14.77;;;10.10;;
85955;SDS011;76522;51.420;5.386;2024-03-22T08:19:03;13.70;;;10.15;;
85955;SDS011;76522;51.420;5.386;2024-03-22T08:21:29;15.18;;;11.23;;
85955;SDS011;76522;51.420;5.386;2024-03-22T08:23:54;14.68;;;9.88;;
85955;SDS011;76522;51.420;5.386;2024-03-22T08:26:20;14.30;;;8.45;;
85955;SDS011;76522;51.420;5.386;2024-03-22T08:28:46;12.90;;;8.65;;
85955;SDS011;76522;51.420;5.386;2024-03-22T08:31:12;13.70;;;10.00;;
85955;SDS011;76522;51.420;5.386;2024-03-22T08:33:39;13.75;;;9.35;;
85955;SDS011;76522;51.420;5.386;2024-03-22T08:36:04;14.43;;;9.38;;
85955;SDS011;76522;51.420;5.386;2024-03-22T08:38:30;12.48;;;8.30;;
85955;SDS011;76522;51.420;5.386;2024-03-22T08:40:56;10.95;;;7.57;;
85955;SDS011;76522;51.420;5.386;2024-03-22T08:43:22;14.70;;;8.85;;
85955;SDS011;76522;51.420;5.386;2024-03-22T08:45:50;13.20;;;8.02;;
85955;SDS011;76522;51.420;5.386;2024-03-22T08:48:16;13.30;;;8.90;;
85955;SDS011;76522;51.420;5.386;2024-03-22T08:50:43;12.82;;;9.20;;
85955;SDS011;76522;51.420;5.386;2024-03-22T08:53:09;15.63;;;8.60;;
85955;SDS011;76522;51.420;5.386;2024-03-22T08:55:35;11.23;;;8.20;;
85955;SDS011;76522;51.420;5.386;2024-03-22T08:58:01;7.78;;;5.72;;
85955;SDS011;76522;51.420;5.386;2024-03-22T09:00:28;10.73;;;8.13;;
85955;SDS011;76522;51.420;5.386;2024-03-22T09:02:54;13.18;;;7.88;;
85955;SDS011;76522;51.420;5.386;2024-03-22T09:05:20;10.45;;;7.57;;
85955;SDS011;76522;51.420;5.386;2024-03-22T09:07:46;9.02;;;6.20;;
85955;SDS011;76522;51.420;5.386;2024-03-22T09:10:13;7.97;;;5.35;;
85955;SDS011;76522;51.420;5.386;2024-03-22T09:12:39;12.00;;;6.57;;
85955;SDS011;76522;51.420;5.386;2024-03-22T09:15:05;10.50;;;7.20;;
85955;SDS011;76522;51.420;5.386;2024-03-22T09:17:32;7.85;;;5.85;;
85955;SDS011;76522;51.420;5.386;2024-03-22T09:19:58;9.48;;;5.43;;
85955;SDS011;76522;51.420;5.386;2024-03-22T09:22:24;10.20;;;7.40;;
85955;SDS011;76522;51.420;5.386;2024-03-22T09:24:49;8.75;;;6.20;;
85955;SDS011;76522;51.420;5.386;2024-03-22T09:27:15;9.35;;;6.28;;
85955;SDS011;76522;51.420;5.386;2024-03-22T09:29:41;9.98;;;5.95;;
85955;SDS011;76522;51.420;5.386;2024-03-22T09:32:08;8.52;;;6.50;;
85955;SDS011;76522;51.420;5.386;2024-03-22T09:34:34;5.85;;;4.25;;
85955;SDS011;76522;51.420;5.386;2024-03-22T09:37:00;9.32;;;6.00;;
85955;SDS011;76522;51.420;5.386;2024-03-22T09:39:25;11.50;;;7.72;;
85955;SDS011;76522;51.420;5.386;2024-03-22T09:41:52;8.75;;;6.07;;
85955;SDS011;76522;51.420;5.386;2024-03-22T09:44:21;10.23;;;5.75;;
85955;SDS011;76522;51.420;5.386;2024-03-22T09:46:48;7.43;;;5.30;;
85955;SDS011;76522;51.420;5.386;2024-03-22T09:49:16;9.75;;;4.97;;
85955;SDS011;76522;51.420;5.386;2024-03-22T09:51:43;10.45;;;6.85;;
85955;SDS011;76522;51.420;5.386;2024-03-22T09:54:10;8.85;;;5.95;;
85955;SDS011;76522;51.420;5.386;2024-03-22T09:56:37;7.22;;;5.63;;
85955;SDS011;76522;51.420;5.386;2024-03-22T09:59:04;9.05;;;6.10;;
85955;SDS011;76522;51.420;5.386;2024-03-22T10:01:30;9.35;;;6.32;;
85955;SDS011;76522;51.420;5.386;2024-03-22T10:03:57;8.65;;;5.53;;
85955;SDS011;76522;51.420;5.386;2024-03-22T10:06:23;10.90;;;7.10;;
85955;SDS011;76522;51.420;5.386;2024-03-22T10:08:48;7.93;;;4.88;;
85955;SDS011;76522;51.420;5.386;2024-03-22T10:11:14;7.93;;;6.32;;
85955;SDS011;76522;51.420;5.386;2024-03-22T10:13:40;11.60;;;7.30;;
85955;SDS011;76522;51.420;5.386;2024-03-22T10:16:05;10.27;;;7.07;;
85955;SDS011;76522;51.420;5.386;2024-03-22T10:18:32;12.85;;;7.20;;
85955;SDS011;76522;51.420;5.386;2024-03-22T10:21:02;8.77;;;6.72;;
85955;SDS011;76522;51.420;5.386;2024-03-22T10:23:29;8.30;;;6.30;;
85955;SDS011;76522;51.420;5.386;2024-03-22T10:25:59;9.93;;;5.07;;
85955;SDS011;76522;51.420;5.386;2024-03-22T10:28:25;11.05;;;8.32;;
85955;SDS011;76522;51.420;5.386;2024-03-22T10:30:53;9.93;;;7.47;;
85955;SDS011;76522;51.420;5.386;2024-03-22T10:33:20;10.77;;;7.30;;
85955;SDS011;76522;51.420;5.386;2024-03-22T10:35:52;10.40;;;6.80;;
85955;SDS011;76522;51.420;5.386;2024-03-22T10:38:19;10.38;;;5.90;;
85955;SDS011;76522;51.420;5.386;2024-03-22T10:40:45;7.78;;;5.55;;
85955;SDS011;76522;51.420;5.386;2024-03-22T10:43:12;9.40;;;7.28;;
85955;SDS011;76522;51.420;5.386;2024-03-22T10:45:39;14.13;;;7.45;;
85955;SDS011;76522;51.420;5.386;2024-03-22T10:48:08;12.75;;;7.63;;
85955;SDS011;76522;51.420;5.386;2024-03-22T10:50:36;10.18;;;7.78;;
85955;SDS011;76522;51.420;5.386;2024-03-22T10:53:05;13.88;;;6.93;;
85955;SDS011;76522;51.420;5.386;2024-03-22T10:55:34;9.30;;;5.85;;
85955;SDS011;76522;51.420;5.386;2024-03-22T10:58:03;6.82;;;5.50;;
85955;SDS011;76522;51.420;5.386;2024-03-22T11:00:30;9.10;;;5.75;;
85955;SDS011;76522;51.420;5.386;2024-03-22T11:02:57;9.57;;;6.72;;
85955;SDS011;76522;51.420;5.386;2024-03-22T11:05:25;9.93;;;7.35;;
85955;SDS011;76522;51.420;5.386;2024-03-22T11:08:00;11.90;;;8.40;;
85955;SDS011;76522;51.420;5.386;2024-03-22T11:10:29;11.60;;;7.35;;
85955;SDS011;76522;51.420;5.386;2024-03-22T11:13:00;8.57;;;6.93;;
85955;SDS011;76522;51.420;5.386;2024-03-22T11:15:28;12.48;;;9.35;;
85955;SDS011;76522;51.420;5.386;2024-03-22T11:17:54;12.50;;;8.18;;
85955;SDS011;76522;51.420;5.386;2024-03-22T11:20:20;12.48;;;8.95;;
85955;SDS011;76522;51.420;5.386;2024-03-22T11:22:46;15.85;;;10.30;;
85955;SDS011;76522;51.420;5.386;2024-03-22T11:25:12;12.65;;;10.40;;
85955;SDS011;76522;51.420;5.386;2024-03-22T11:27:38;24.17;;;13.93;;
85955;SDS011;76522;51.420;5.386;2024-03-22T11:30:04;19.33;;;14.73;;
85955;SDS011;76522;51.420;5.386;2024-03-22T11:32:30;20.55;;;15.52;;
85955;SDS011;76522;51.420;5.386;2024-03-22T11:34:59;17.65;;;13.20;;
85955;SDS011;76522;51.420;5.386;2024-03-22T11:37:25;24.00;;;17.15;;
85955;SDS011;76522;51.420;5.386;2024-03-22T11:39:51;23.40;;;14.85;;
85955;SDS011;76522;51.420;5.386;2024-03-22T11:42:16;24.67;;;16.25;;
85955;SDS011;76522;51.420;5.386;2024-03-22T11:44:43;19.20;;;13.77;;
85955;SDS011;76522;51.420;5.386;2024-03-22T11:47:09;17.92;;;11.98;;
85955;SDS011;76522;51.420;5.386;2024-03-22T11:49:35;23.67;;;16.77;;
85955;SDS011;76522;51.420;5.386;2024-03-22T11:52:02;21.42;;;13.80;;
85955;SDS011;76522;51.420;5.386;2024-03-22T11:54:28;20.92;;;14.93;;
85955;SDS011;76522;51.420;5.386;2024-03-22T11:56:56;21.40;;;16.23;;
85955;SDS011;76522;51.420;5.386;2024-03-22T11:59:22;23.38;;;16.35;;
85955;SDS011;76522;51.420;5.386;2024-03-22T12:01:47;22.42;;;15.70;;
85955;SDS011;76522;51.420;5.386;2024-03-22T12:04:13;26.67;;;17.45;;
85955;SDS011;76522;51.420;5.386;2024-03-22T12:06:42;24.02;;;17.35;;
85955;SDS011;76522;51.420;5.386;2024-03-22T12:09:09;19.77;;;16.50;;
85955;SDS011;76522;51.420;5.386;2024-03-22T12:11:37;17.70;;;12.77;;
85955;SDS011;76522;51.420;5.386;2024-03-22T12:14:04;24.83;;;16.30;;
85955;SDS011;76522;51.420;5.386;2024-03-22T12:16:29;24.52;;;16.70;;
85955;SDS011;76522;51.420;5.386;2024-03-22T12:18:55;24.95;;;16.55;;
85955;SDS011;76522;51.420;5.386;2024-03-22T12:21:21;27.95;;;16.23;;
85955;SDS011;76522;51.420;5.386;2024-03-22T12:23:47;27.13;;;19.75;;
85955;SDS011;76522;51.420;5.386;2024-03-22T12:26:13;19.45;;;14.45;;
85955;SDS011;76522;51.420;5.386;2024-03-22T12:28:38;24.35;;;18.48;;
85955;SDS011;76522;51.420;5.386;2024-03-22T12:31:04;22.50;;;14.52;;
85955;SDS011;76522;51.420;5.386;2024-03-22T12:33:33;22.63;;;16.05;;
85955;SDS011;76522;51.420;5.386;2024-03-22T12:35:59;22.50;;;16.52;;
85955;SDS011;76522;51.420;5.386;2024-03-22T12:38:25;18.92;;;12.98;;
85955;SDS011;76522;51.420;5.386;2024-03-22T12:40:51;23.27;;;14.25;;
85955;SDS011;76522;51.420;5.386;2024-03-22T12:43:17;29.50;;;18.25;;
85955;SDS011;76522;51.420;5.386;2024-03-22T12:45:42;25.15;;;16.85;;
85955;SDS011;76522;51.420;5.386;2024-03-22T12:48:08;24.27;;;16.67;;
85955;SDS011;76522;51.420;5.386;2024-03-22T12:50:34;23.35;;;15.80;;
85955;SDS011;76522;51.420;5.386;2024-03-22T12:53:00;28.27;;;19.00;;
85955;SDS011;76522;51.420;5.386;2024-03-22T12:55:26;25.73;;;18.83;;
85955;SDS011;76522;51.420;5.386;2024-03-22T12:57:53;28.90;;;19.73;;
85955;SDS011;76522;51.420;5.386;2024-03-22T13:00:19;25.48;;;17.30;;
85955;SDS011;76522;51.420;5.386;2024-03-22T13:02:45;26.30;;;19.38;;
85955;SDS011;76522;51.420;5.386;2024-03-22T13:05:11;22.83;;;17.63;;
85955;SDS011;76522;51.420;5.386;2024-03-22T13:07:38;25.08;;;16.25;;
85955;SDS011;76522;51.420;5.386;2024-03-22T13:10:07;24.25;;;19.00;;
85955;SDS011;76522;51.420;5.386;2024-03-22T13:12:33;24.75;;;16.40;;
85955;SDS011;76522;51.420;5.386;2024-03-22T13:15:00;18.15;;;13.57;;
85955;SDS011;76522;51.420;5.386;2024-03-22T13:17:26;15.75;;;10.32;;
85955;SDS011;76522;51.420;5.386;2024-03-22T13:19:52;10.60;;;8.18;;
85955;SDS011;76522;51.420;5.386;2024-03-22T13:22:17;13.75;;;8.68;;
85955;SDS011;76522;51.420;5.386;2024-03-22T13:24:44;17.98;;;11.65;;
85955;SDS011;76522;51.420;5.386;2024-03-22T13:27:11;14.63;;;10.65;;
85955;SDS011;76522;51.420;5.386;2024-03-22T13:29:38;16.42;;;11.57;;
85955;SDS011;76522;51.420;5.386;2024-03-22T13:32:04;18.00;;;14.25;;
85955;SDS011;76522;51.420;5.386;2024-03-22T13:34:32;23.73;;;15.70;;
85955;SDS011;76522;51.420;5.386;2024-03-22T13:37:01;24.45;;;17.33;;
85955;SDS011;76522;51.420;5.386;2024-03-22T13:39:27;25.40;;;18.88;;
85955;SDS011;76522;51.420;5.386;2024-03-22T13:41:56;30.25;;;20.80;;
85955;SDS011;76522;51.420;5.386;2024-03-22T13:44:22;24.25;;;17.38;;
85955;SDS011;76522;51.420;5.386;2024-03-22T13:46:51;23.50;;;17.42;;
85955;SDS011;76522;51.420;5.386;2024-03-22T13:49:17;24.63;;;17.73;;
85955;SDS011;76522;51.420;5.386;2024-03-22T13:51:45;21.58;;;15.90;;
85955;SDS011;76522;51.420;5.386;2024-03-22T13:54:12;23.45;;;18.30;;
85955;SDS011;76522;51.420;5.386;2024-03-22T13:56:38;23.90;;;17.45;;
85955;SDS011;76522;51.420;5.386;2024-03-22T13:59:04;25.58;;;16.75;;
85955;SDS011;76522;51.420;5.386;2024-03-22T14:01:31;30.90;;;18.15;;
85955;SDS011;76522;51.420;5.386;2024-03-22T14:03:57;28.92;;;19.63;;
85955;SDS011;76522;51.420;5.386;2024-03-22T14:06:23;25.98;;;17.00;;
85955;SDS011;76522;51.420;5.386;2024-03-22T14:08:48;30.73;;;22.35;;
85955;SDS011;76522;51.420;5.386;2024-03-22T14:11:14;30.95;;;18.65;;
85955;SDS011;76522;51.420;5.386;2024-03-22T14:13:40;36.50;;;20.20;;
85955;SDS011;76522;51.420;5.386;2024-03-22T14:16:05;26.83;;;18.85;;
85955;SDS011;76522;51.420;5.386;2024-03-22T14:18:33;28.13;;;18.90;;